sensor_id;sensor_type;location;lat;lon;timestamp;P1;durP1;ratioP1;P2;durP2;ratioP2
56726;SDS011;42609;52.700;6.236;2023-04-20T00:00:03;7.40;;;3.33;;
56726;SDS011;42609;52.700;6.236;2023-04-20T00:02:36;9.68;;;3.00;;
56726;SDS011;42609;52.700;6.236;2023-04-20T00:05:03;9.10;;;3.92;;
56726;SDS011;42609;52.700;6.236;2023-04-20T00:07:31;6.82;;;3.00;;
56726;SDS011;42609;52.700;6.236;2023-04-20T00:09:57;6.90;;;3.10;;
56726;SDS011;42609;52.700;6.236;2023-04-20T00:12:22;6.15;;;2.88;;
56726;SDS011;42609;52.700;6.236;2023-04-20T00:14:48;7.72;;;3.47;;
56726;SDS011;42609;52.700;6.236;2023-04-20T00:17:13;5.30;;;3.20;;
56726;SDS011;42609;52.700;6.236;2023-04-20T00:19:39;6.30;;;3.22;;
56726;SDS011;42609;52.700;6.236;2023-04-20T00:22:05;5.75;;;3.33;;
56726;SDS011;42609;52.700;6.236;2023-04-20T00:24:30;7.18;;;3.30;;
56726;SDS011;42609;52.700;6.236;2023-04-20T00:26:56;7.28;;;3.30;;
56726;SDS011;42609;52.700;6.236;2023-04-20T00:29:22;6.43;;;3.00;;
56726;SDS011;42609;52.700;6.236;2023-04-20T00:31:47;6.05;;;3.30;;
56726;SDS011;42609;52.700;6.236;2023-04-20T00:34:13;6.15;;;3.30;;
56726;SDS011;42609;52.700;6.236;2023-04-20T00:36:39;7.95;;;3.58;;
56726;SDS011;42609;52.700;6.236;2023-04-20T00:39:05;7.28;;;3.40;;
56726;SDS011;42609;52.700;6.236;2023-04-20T00:41:31;6.35;;;3.25;;
56726;SDS011;42609;52.700;6.236;2023-04-20T00:43:57;7.25;;;3.10;;
56726;SDS011;42609;52.700;6.236;2023-04-20T00:46:22;5.78;;;3.40;;
56726;SDS011;42609;52.700;6.236;2023-04-20T00:48:51;6.22;;;3.17;;
56726;SDS011;42609;52.700;6.236;2023-04-20T00:51:18;7.05;;;3.83;;
56726;SDS011;42609;52.700;6.236;2023-04-20T00:53:45;5.47;;;3.40;;
56726;SDS011;42609;52.700;6.236;2023-04-20T00:56:12;5.90;;;3.20;;
56726;SDS011;42609;52.700;6.236;2023-04-20T00:58:38;6.22;;;3.60;;
56726;SDS011;42609;52.700;6.236;2023-04-20T01:01:05;6.03;;;3.45;;
56726;SDS011;42609;52.700;6.236;2023-04-20T01:03:31;7.13;;;3.60;;
56726;SDS011;42609;52.700;6.236;2023-04-20T01:05:57;6.05;;;3.63;;
56726;SDS011;42609;52.700;6.236;2023-04-20T01:08:25;6.65;;;3.78;;
56726;SDS011;42609;52.700;6.236;2023-04-20T01:10:52;8.02;;;3.30;;
56726;SDS011;42609;52.700;6.236;2023-04-20T01:13:20;6.13;;;3.33;;
56726;SDS011;42609;52.700;6.236;2023-04-20T01:15:46;7.82;;;3.50;;
56726;SDS011;42609;52.700;6.236;2023-04-20T01:18:11;6.75;;;3.55;;
56726;SDS011;42609;52.700;6.236;2023-04-20T01:20:37;7.05;;;3.53;;
56726;SDS011;42609;52.700;6.236;2023-04-20T01:23:03;7.53;;;3.13;;
56726;SDS011;42609;52.700;6.236;2023-04-20T01:25:29;6.75;;;3.45;;
56726;SDS011;42609;52.700;6.236;2023-04-20T01:27:55;6.57;;;3.40;;
56726;SDS011;42609;52.700;6.236;2023-04-20T01:30:20;8.43;;;3.83;;
56726;SDS011;42609;52.700;6.236;2023-04-20T01:32:46;6.47;;;3.35;;
56726;SDS011;42609;52.700;6.236;2023-04-20T01:35:12;7.78;;;3.60;;
56726;SDS011;42609;52.700;6.236;2023-04-20T01:37:38;5.05;;;3.08;;
56726;SDS011;42609;52.700;6.236;2023-04-20T01:40:05;6.55;;;3.50;;
56726;SDS011;42609;52.700;6.236;2023-04-20T01:42:33;6.18;;;3.30;;
56726;SDS011;42609;52.700;6.236;2023-04-20T01:44:59;6.53;;;3.17;;
56726;SDS011;42609;52.700;6.236;2023-04-20T01:47:25;6.07;;;3.08;;
56726;SDS011;42609;52.700;6.236;2023-04-20T01:49:50;6.20;;;3.20;;
56726;SDS011;42609;52.700;6.236;2023-04-20T01:52:16;5.68;;;3.53;;
56726;SDS011;42609;52.700;6.236;2023-04-20T01:54:41;7.88;;;3.15;;
56726;SDS011;42609;52.700;6.236;2023-04-20T01:57:07;5.90;;;2.75;;
56726;SDS011;42609;52.700;6.236;2023-04-20T01:59:33;6.60;;;3.00;;
56726;SDS011;42609;52.700;6.236;2023-04-20T02:01:58;6.88;;;3.00;;
56726;SDS011;42609;52.700;6.236;2023-04-20T02:04:24;6.18;;;3.10;;
56726;SDS011;42609;52.700;6.236;2023-04-20T02:06:49;9.10;;;2.90;;
56726;SDS011;42609;52.700;6.236;2023-04-20T02:09:15;6.53;;;3.03;;
56726;SDS011;42609;52.700;6.236;2023-04-20T02:11:41;5.85;;;2.75;;
56726;SDS011;42609;52.700;6.236;2023-04-20T02:14:06;5.70;;;2.78;;
56726;SDS011;42609;52.700;6.236;2023-04-20T02:16:32;7.28;;;2.80;;
56726;SDS011;42609;52.700;6.236;2023-04-20T02:18:59;7.55;;;3.15;;
56726;SDS011;42609;52.700;6.236;2023-04-20T02:21:25;7.13;;;3.00;;
56726;SDS011;42609;52.700;6.236;2023-04-20T02:23:51;6.65;;;2.90;;
56726;SDS011;42609;52.700;6.236;2023-04-20T02:26:17;4.80;;;2.53;;
56726;SDS011;42609;52.700;6.236;2023-04-20T02:28:43;6.43;;;3.13;;
56726;SDS011;42609;52.700;6.236;2023-04-20T02:31:08;5.57;;;2.90;;
56726;SDS011;42609;52.700;6.236;2023-04-20T02:33:34;5.45;;;2.40;;
56726;SDS011;42609;52.700;6.236;2023-04-20T02:36:00;5.38;;;2.53;;
56726;SDS011;42609;52.700;6.236;2023-04-20T02:38:26;6.00;;;2.78;;
56726;SDS011;42609;52.700;6.236;2023-04-20T02:40:51;6.18;;;2.72;;
56726;SDS011;42609;52.700;6.236;2023-04-20T02:43:17;5.55;;;2.45;;
56726;SDS011;42609;52.700;6.236;2023-04-20T02:45:43;6.70;;;2.38;;
56726;SDS011;42609;52.700;6.236;2023-04-20T02:48:08;7.22;;;2.67;;
56726;SDS011;42609;52.700;6.236;2023-04-20T02:50:34;7.43;;;2.70;;
56726;SDS011;42609;52.700;6.236;2023-04-20T02:53:00;9.68;;;2.80;;
56726;SDS011;42609;52.700;6.236;2023-04-20T02:55:25;7.03;;;2.35;;
56726;SDS011;42609;52.700;6.236;2023-04-20T02:57:51;5.65;;;2.65;;
56726;SDS011;42609;52.700;6.236;2023-04-20T03:00:17;5.45;;;2.47;;
56726;SDS011;42609;52.700;6.236;2023-04-20T03:02:43;7.07;;;2.30;;
56726;SDS011;42609;52.700;6.236;2023-04-20T03:05:08;5.15;;;2.28;;
56726;SDS011;42609;52.700;6.236;2023-04-20T03:07:34;6.00;;;2.20;;
56726;SDS011;42609;52.700;6.236;2023-04-20T03:09:59;5.82;;;2.50;;
56726;SDS011;42609;52.700;6.236;2023-04-20T03:12:25;5.25;;;2.35;;
56726;SDS011;42609;52.700;6.236;2023-04-20T03:14:51;5.07;;;2.67;;
56726;SDS011;42609;52.700;6.236;2023-04-20T03:17:16;5.70;;;2.50;;
56726;SDS011;42609;52.700;6.236;2023-04-20T03:19:42;5.93;;;2.50;;
56726;SDS011;42609;52.700;6.236;2023-04-20T03:22:07;6.10;;;2.15;;
56726;SDS011;42609;52.700;6.236;2023-04-20T03:24:33;5.55;;;2.38;;
56726;SDS011;42609;52.700;6.236;2023-04-20T03:26:59;4.53;;;2.17;;
56726;SDS011;42609;52.700;6.236;2023-04-20T03:29:25;5.68;;;2.13;;
56726;SDS011;42609;52.700;6.236;2023-04-20T03:31:51;5.53;;;2.47;;
56726;SDS011;42609;52.700;6.236;2023-04-20T03:34:16;6.15;;;2.35;;
56726;SDS011;42609;52.700;6.236;2023-04-20T03:36:42;5.63;;;2.17;;
56726;SDS011;42609;52.700;6.236;2023-04-20T03:39:07;5.07;;;2.28;;
56726;SDS011;42609;52.700;6.236;2023-04-20T03:41:33;4.55;;;2.00;;
56726;SDS011;42609;52.700;6.236;2023-04-20T03:43:59;9.32;;;2.65;;
56726;SDS011;42609;52.700;6.236;2023-04-20T03:46:25;7.97;;;2.38;;
56726;SDS011;42609;52.700;6.236;2023-04-20T03:48:50;8.20;;;2.33;;
56726;SDS011;42609;52.700;6.236;2023-04-20T03:51:16;5.30;;;2.00;;
56726;SDS011;42609;52.700;6.236;2023-04-20T03:53:42;5.75;;;2.15;;
56726;SDS011;42609;52.700;6.236;2023-04-20T03:56:07;5.53;;;2.05;;
56726;SDS011;42609;52.700;6.236;2023-04-20T03:58:33;7.32;;;2.30;;
56726;SDS011;42609;52.700;6.236;2023-04-20T04:01:04;7.22;;;2.38;;
56726;SDS011;42609;52.700;6.236;2023-04-20T04:03:32;4.53;;;1.88;;
56726;SDS011;42609;52.700;6.236;2023-04-20T04:05:58;7.05;;;2.42;;
56726;SDS011;42609;52.700;6.236;2023-04-20T04:08:25;5.32;;;2.35;;
56726;SDS011;42609;52.700;6.236;2023-04-20T04:10:50;7.15;;;2.08;;
56726;SDS011;42609;52.700;6.236;2023-04-20T04:13:16;5.72;;;2.28;;
56726;SDS011;42609;52.700;6.236;2023-04-20T04:15:42;5.40;;;2.20;;
56726;SDS011;42609;52.700;6.236;2023-04-20T04:18:07;5.53;;;2.05;;
56726;SDS011;42609;52.700;6.236;2023-04-20T04:20:33;5.05;;;1.80;;
56726;SDS011;42609;52.700;6.236;2023-04-20T04:22:58;6.03;;;1.98;;
56726;SDS011;42609;52.700;6.236;2023-04-20T04:25:24;4.82;;;1.92;;
56726;SDS011;42609;52.700;6.236;2023-04-20T04:27:49;5.47;;;2.20;;
56726;SDS011;42609;52.700;6.236;2023-04-20T04:30:15;4.90;;;2.20;;
56726;SDS011;42609;52.700;6.236;2023-04-20T04:32:43;6.53;;;2.30;;
56726;SDS011;42609;52.700;6.236;2023-04-20T04:35:10;4.78;;;2.20;;
56726;SDS011;42609;52.700;6.236;2023-04-20T04:37:36;7.15;;;2.40;;
56726;SDS011;42609;52.700;6.236;2023-04-20T04:40:02;4.80;;;2.20;;
56726;SDS011;42609;52.700;6.236;2023-04-20T04:42:32;5.65;;;2.25;;
56726;SDS011;42609;52.700;6.236;2023-04-20T04:44:59;4.97;;;2.50;;
56726;SDS011;42609;52.700;6.236;2023-04-20T04:47:26;5.18;;;2.30;;
56726;SDS011;42609;52.700;6.236;2023-04-20T04:49:53;6.95;;;2.20;;
56726;SDS011;42609;52.700;6.236;2023-04-20T04:52:19;5.97;;;2.30;;
56726;SDS011;42609;52.700;6.236;2023-04-20T04:54:45;5.43;;;2.55;;
56726;SDS011;42609;52.700;6.236;2023-04-20T04:57:11;6.13;;;2.60;;
56726;SDS011;42609;52.700;6.236;2023-04-20T04:59:37;5.45;;;2.17;;
56726;SDS011;42609;52.700;6.236;2023-04-20T05:02:02;5.38;;;2.38;;
56726;SDS011;42609;52.700;6.236;2023-04-20T05:04:28;7.93;;;2.25;;
56726;SDS011;42609;52.700;6.236;2023-04-20T05:06:53;4.40;;;2.13;;
56726;SDS011;42609;52.700;6.236;2023-04-20T05:09:19;6.97;;;2.35;;
56726;SDS011;42609;52.700;6.236;2023-04-20T05:11:44;5.85;;;2.30;;
56726;SDS011;42609;52.700;6.236;2023-04-20T05:14:10;5.25;;;2.30;;
56726;SDS011;42609;52.700;6.236;2023-04-20T05:16:36;5.72;;;2.60;;
56726;SDS011;42609;52.700;6.236;2023-04-20T05:19:02;5.55;;;2.20;;
56726;SDS011;42609;52.700;6.236;2023-04-20T05:21:28;6.15;;;2.47;;
56726;SDS011;42609;52.700;6.236;2023-04-20T05:23:53;5.38;;;2.50;;
56726;SDS011;42609;52.700;6.236;2023-04-20T05:26:19;5.35;;;2.53;;
56726;SDS011;42609;52.700;6.236;2023-04-20T05:28:44;5.47;;;2.53;;
56726;SDS011;42609;52.700;6.236;2023-04-20T05:31:10;6.40;;;2.60;;
56726;SDS011;42609;52.700;6.236;2023-04-20T05:33:36;5.85;;;2.70;;
56726;SDS011;42609;52.700;6.236;2023-04-20T05:36:01;5.43;;;2.60;;
56726;SDS011;42609;52.700;6.236;2023-04-20T05:38:27;7.82;;;2.63;;
56726;SDS011;42609;52.700;6.236;2023-04-20T05:40:54;7.20;;;2.95;;
56726;SDS011;42609;52.700;6.236;2023-04-20T05:43:20;6.53;;;2.90;;
56726;SDS011;42609;52.700;6.236;2023-04-20T05:45:47;5.45;;;2.58;;
56726;SDS011;42609;52.700;6.236;2023-04-20T05:48:13;6.55;;;2.80;;
56726;SDS011;42609;52.700;6.236;2023-04-20T05:50:38;6.03;;;2.40;;
56726;SDS011;42609;52.700;6.236;2023-04-20T05:53:04;6.65;;;2.42;;
56726;SDS011;42609;52.700;6.236;2023-04-20T05:55:29;5.38;;;2.60;;
56726;SDS011;42609;52.700;6.236;2023-04-20T05:57:55;7.75;;;2.80;;
56726;SDS011;42609;52.700;6.236;2023-04-20T06:00:21;6.60;;;2.50;;
56726;SDS011;42609;52.700;6.236;2023-04-20T06:02:46;4.88;;;2.33;;
56726;SDS011;42609;52.700;6.236;2023-04-20T06:05:12;6.32;;;2.20;;
56726;SDS011;42609;52.700;6.236;2023-04-20T06:07:37;4.82;;;2.30;;
56726;SDS011;42609;52.700;6.236;2023-04-20T06:10:03;7.07;;;2.40;;
56726;SDS011;42609;52.700;6.236;2023-04-20T06:12:30;6.25;;;2.40;;
56726;SDS011;42609;52.700;6.236;2023-04-20T06:14:59;5.97;;;2.20;;
56726;SDS011;42609;52.700;6.236;2023-04-20T06:17:25;5.93;;;2.42;;
56726;SDS011;42609;52.700;6.236;2023-04-20T06:19:50;6.07;;;2.35;;
56726;SDS011;42609;52.700;6.236;2023-04-20T06:22:16;4.82;;;2.17;;
56726;SDS011;42609;52.700;6.236;2023-04-20T06:24:43;6.38;;;2.42;;
56726;SDS011;42609;52.700;6.236;2023-04-20T06:27:09;5.70;;;2.50;;
56726;SDS011;42609;52.700;6.236;2023-04-20T06:29:34;6.25;;;3.08;;
56726;SDS011;42609;52.700;6.236;2023-04-20T06:32:00;5.80;;;2.78;;
56726;SDS011;42609;52.700;6.236;2023-04-20T06:34:26;7.68;;;3.22;;
56726;SDS011;42609;52.700;6.236;2023-04-20T06:36:52;5.72;;;2.55;;
56726;SDS011;42609;52.700;6.236;2023-04-20T06:39:18;7.22;;;2.90;;
56726;SDS011;42609;52.700;6.236;2023-04-20T06:41:43;7.28;;;3.00;;
56726;SDS011;42609;52.700;6.236;2023-04-20T06:44:09;7.30;;;2.67;;
56726;SDS011;42609;52.700;6.236;2023-04-20T06:46:35;9.10;;;3.25;;
56726;SDS011;42609;52.700;6.236;2023-04-20T06:49:00;8.10;;;2.90;;
56726;SDS011;42609;52.700;6.236;2023-04-20T06:51:27;6.47;;;3.20;;
56726;SDS011;42609;52.700;6.236;2023-04-20T06:53:53;7.80;;;3.38;;
56726;SDS011;42609;52.700;6.236;2023-04-20T06:56:19;7.00;;;3.03;;
56726;SDS011;42609;52.700;6.236;2023-04-20T06:58:45;7.40;;;3.47;;
56726;SDS011;42609;52.700;6.236;2023-04-20T07:01:11;8.50;;;3.30;;
56726;SDS011;42609;52.700;6.236;2023-04-20T07:03:37;6.80;;;3.35;;
56726;SDS011;42609;52.700;6.236;2023-04-20T07:06:02;8.05;;;3.08;;
56726;SDS011;42609;52.700;6.236;2023-04-20T07:08:28;8.75;;;3.20;;
56726;SDS011;42609;52.700;6.236;2023-04-20T07:10:54;8.98;;;3.20;;
56726;SDS011;42609;52.700;6.236;2023-04-20T07:13:20;8.15;;;3.70;;
56726;SDS011;42609;52.700;6.236;2023-04-20T07:15:45;5.97;;;3.55;;
56726;SDS011;42609;52.700;6.236;2023-04-20T07:18:11;6.03;;;3.30;;
56726;SDS011;42609;52.700;6.236;2023-04-20T07:20:36;6.07;;;3.53;;
56726;SDS011;42609;52.700;6.236;2023-04-20T07:23:02;8.55;;;3.58;;
56726;SDS011;42609;52.700;6.236;2023-04-20T07:25:28;6.90;;;3.35;;
56726;SDS011;42609;52.700;6.236;2023-04-20T07:27:55;6.80;;;3.30;;
56726;SDS011;42609;52.700;6.236;2023-04-20T07:30:21;7.53;;;3.28;;
56726;SDS011;42609;52.700;6.236;2023-04-20T07:32:47;6.80;;;3.17;;
56726;SDS011;42609;52.700;6.236;2023-04-20T07:35:13;8.48;;;3.85;;
56726;SDS011;42609;52.700;6.236;2023-04-20T07:37:38;7.85;;;3.60;;
56726;SDS011;42609;52.700;6.236;2023-04-20T07:40:04;7.25;;;3.50;;
56726;SDS011;42609;52.700;6.236;2023-04-20T07:42:31;6.93;;;3.38;;
56726;SDS011;42609;52.700;6.236;2023-04-20T07:44:58;7.30;;;3.50;;
56726;SDS011;42609;52.700;6.236;2023-04-20T07:47:24;7.10;;;3.40;;
56726;SDS011;42609;52.700;6.236;2023-04-20T07:49:49;6.47;;;3.33;;
56726;SDS011;42609;52.700;6.236;2023-04-20T07:52:15;7.32;;;3.40;;
56726;SDS011;42609;52.700;6.236;2023-04-20T07:54:42;8.30;;;3.38;;
56726;SDS011;42609;52.700;6.236;2023-04-20T07:57:08;7.53;;;3.80;;
56726;SDS011;42609;52.700;6.236;2023-04-20T07:59:34;8.55;;;3.88;;
56726;SDS011;42609;52.700;6.236;2023-04-20T08:02:00;7.97;;;3.55;;
56726;SDS011;42609;52.700;6.236;2023-04-20T08:04:27;7.68;;;3.40;;
56726;SDS011;42609;52.700;6.236;2023-04-20T08:06:52;8.98;;;3.58;;
56726;SDS011;42609;52.700;6.236;2023-04-20T08:09:18;7.30;;;3.55;;
56726;SDS011;42609;52.700;6.236;2023-04-20T08:11:44;6.57;;;3.65;;
56726;SDS011;42609;52.700;6.236;2023-04-20T08:14:10;7.43;;;3.70;;
56726;SDS011;42609;52.700;6.236;2023-04-20T08:16:36;5.35;;;3.40;;
56726;SDS011;42609;52.700;6.236;2023-04-20T08:19:02;8.98;;;3.83;;
56726;SDS011;42609;52.700;6.236;2023-04-20T08:21:34;8.05;;;3.78;;
56726;SDS011;42609;52.700;6.236;2023-04-20T08:24:03;7.43;;;3.72;;
56726;SDS011;42609;52.700;6.236;2023-04-20T08:26:30;6.75;;;3.90;;
56726;SDS011;42609;52.700;6.236;2023-04-20T08:28:56;7.50;;;4.18;;
56726;SDS011;42609;52.700;6.236;2023-04-20T08:31:22;9.68;;;4.10;;
56726;SDS011;42609;52.700;6.236;2023-04-20T08:33:47;8.18;;;4.80;;
56726;SDS011;42609;52.700;6.236;2023-04-20T08:36:13;8.45;;;4.13;;
56726;SDS011;42609;52.700;6.236;2023-04-20T08:38:39;7.90;;;4.22;;
56726;SDS011;42609;52.700;6.236;2023-04-20T08:41:04;7.97;;;4.47;;
56726;SDS011;42609;52.700;6.236;2023-04-20T08:43:30;8.77;;;4.32;;
56726;SDS011;42609;52.700;6.236;2023-04-20T08:45:57;9.40;;;4.70;;
56726;SDS011;42609;52.700;6.236;2023-04-20T08:48:24;6.88;;;4.25;;
56726;SDS011;42609;52.700;6.236;2023-04-20T08:50:53;8.63;;;4.50;;
56726;SDS011;42609;52.700;6.236;2023-04-20T08:53:18;7.55;;;4.45;;
56726;SDS011;42609;52.700;6.236;2023-04-20T08:55:44;8.80;;;4.28;;
56726;SDS011;42609;52.700;6.236;2023-04-20T08:58:12;8.07;;;4.50;;
56726;SDS011;42609;52.700;6.236;2023-04-20T09:00:47;7.70;;;4.07;;
56726;SDS011;42609;52.700;6.236;2023-04-20T09:03:13;10.38;;;4.25;;
56726;SDS011;42609;52.700;6.236;2023-04-20T09:05:39;7.32;;;4.40;;
56726;SDS011;42609;52.700;6.236;2023-04-20T09:08:05;7.25;;;4.35;;
56726;SDS011;42609;52.700;6.236;2023-04-20T09:10:39;9.13;;;4.25;;
56726;SDS011;42609;52.700;6.236;2023-04-20T09:13:06;8.43;;;4.73;;
56726;SDS011;42609;52.700;6.236;2023-04-20T09:15:32;8.93;;;4.95;;
56726;SDS011;42609;52.700;6.236;2023-04-20T09:17:58;9.98;;;4.78;;
56726;SDS011;42609;52.700;6.236;2023-04-20T09:20:31;7.93;;;4.50;;
56726;SDS011;42609;52.700;6.236;2023-04-20T09:23:11;11.15;;;4.88;;
56726;SDS011;42609;52.700;6.236;2023-04-20T09:25:46;8.68;;;4.63;;
56726;SDS011;42609;52.700;6.236;2023-04-20T09:28:16;8.90;;;4.85;;
56726;SDS011;42609;52.700;6.236;2023-04-20T09:30:43;7.63;;;4.22;;
56726;SDS011;42609;52.700;6.236;2023-04-20T09:33:10;8.65;;;4.70;;
56726;SDS011;42609;52.700;6.236;2023-04-20T09:35:38;8.00;;;4.80;;
56726;SDS011;42609;52.700;6.236;2023-04-20T09:38:06;7.18;;;4.38;;
56726;SDS011;42609;52.700;6.236;2023-04-20T09:40:33;11.20;;;4.40;;
56726;SDS011;42609;52.700;6.236;2023-04-20T09:43:04;9.52;;;4.50;;
56726;SDS011;42609;52.700;6.236;2023-04-20T09:45:37;8.25;;;4.95;;
56726;SDS011;42609;52.700;6.236;2023-04-20T09:48:03;7.82;;;4.30;;
56726;SDS011;42609;52.700;6.236;2023-04-20T09:50:31;8.30;;;4.68;;
56726;SDS011;42609;52.700;6.236;2023-04-20T09:52:59;10.88;;;4.80;;
56726;SDS011;42609;52.700;6.236;2023-04-20T09:55:26;8.90;;;4.93;;
56726;SDS011;42609;52.700;6.236;2023-04-20T09:57:55;8.80;;;4.88;;
56726;SDS011;42609;52.700;6.236;2023-04-20T10:00:21;9.30;;;5.22;;
56726;SDS011;42609;52.700;6.236;2023-04-20T10:02:47;8.07;;;4.97;;
56726;SDS011;42609;52.700;6.236;2023-04-20T10:05:12;9.73;;;4.80;;
56726;SDS011;42609;52.700;6.236;2023-04-20T10:07:39;8.73;;;4.70;;
56726;SDS011;42609;52.700;6.236;2023-04-20T10:10:06;8.50;;;5.13;;
56726;SDS011;42609;52.700;6.236;2023-04-20T10:12:50;8.80;;;5.43;;
56726;SDS011;42609;52.700;6.236;2023-04-20T10:15:20;8.95;;;4.85;;
56726;SDS011;42609;52.700;6.236;2023-04-20T10:17:46;10.15;;;5.43;;
56726;SDS011;42609;52.700;6.236;2023-04-20T10:20:19;9.93;;;5.03;;
56726;SDS011;42609;52.700;6.236;2023-04-20T10:22:50;10.90;;;5.35;;
56726;SDS011;42609;52.700;6.236;2023-04-20T10:25:17;9.70;;;5.55;;
56726;SDS011;42609;52.700;6.236;2023-04-20T10:30:48;9.45;;;5.45;;
56726;SDS011;42609;52.700;6.236;2023-04-20T10:33:14;8.48;;;5.40;;
56726;SDS011;42609;52.700;6.236;2023-04-20T10:35:48;10.25;;;5.32;;
56726;SDS011;42609;52.700;6.236;2023-04-20T10:38:31;7.95;;;5.15;;
56726;SDS011;42609;52.700;6.236;2023-04-20T10:41:05;10.55;;;6.05;;
56726;SDS011;42609;52.700;6.236;2023-04-20T10:43:31;11.48;;;5.82;;
56726;SDS011;42609;52.700;6.236;2023-04-20T10:45:59;9.88;;;6.13;;
56726;SDS011;42609;52.700;6.236;2023-04-20T10:48:24;11.25;;;5.78;;
56726;SDS011;42609;52.700;6.236;2023-04-20T10:50:50;9.93;;;5.80;;
56726;SDS011;42609;52.700;6.236;2023-04-20T10:53:18;9.40;;;6.18;;
56726;SDS011;42609;52.700;6.236;2023-04-20T10:55:45;9.40;;;5.80;;
56726;SDS011;42609;52.700;6.236;2023-04-20T10:58:20;9.18;;;5.97;;
56726;SDS011;42609;52.700;6.236;2023-04-20T11:00:59;10.25;;;5.80;;
56726;SDS011;42609;52.700;6.236;2023-04-20T11:03:26;8.95;;;5.53;;
56726;SDS011;42609;52.700;6.236;2023-04-20T11:05:54;10.50;;;6.40;;
56726;SDS011;42609;52.700;6.236;2023-04-20T11:08:21;10.00;;;5.90;;
56726;SDS011;42609;52.700;6.236;2023-04-20T11:10:47;8.73;;;6.20;;
56726;SDS011;42609;52.700;6.236;2023-04-20T11:13:21;8.13;;;6.10;;
56726;SDS011;42609;52.700;6.236;2023-04-20T11:15:49;8.75;;;6.25;;
56726;SDS011;42609;52.700;6.236;2023-04-20T11:18:15;9.43;;;6.25;;
56726;SDS011;42609;52.700;6.236;2023-04-20T11:20:51;10.55;;;6.90;;
56726;SDS011;42609;52.700;6.236;2023-04-20T11:23:21;10.43;;;6.55;;
56726;SDS011;42609;52.700;6.236;2023-04-20T11:25:56;9.00;;;6.53;;
56726;SDS011;42609;52.700;6.236;2023-04-20T11:28:22;10.30;;;7.15;;
56726;SDS011;42609;52.700;6.236;2023-04-20T11:30:49;8.88;;;6.43;;
56726;SDS011;42609;52.700;6.236;2023-04-20T11:33:30;11.07;;;7.57;;
56726;SDS011;42609;52.700;6.236;2023-04-20T11:35:58;11.30;;;6.95;;
56726;SDS011;42609;52.700;6.236;2023-04-20T11:40:52;10.55;;;6.82;;
56726;SDS011;42609;52.700;6.236;2023-04-20T11:43:18;9.50;;;6.57;;
56726;SDS011;42609;52.700;6.236;2023-04-20T11:45:44;10.63;;;6.40;;
56726;SDS011;42609;52.700;6.236;2023-04-20T11:48:09;9.20;;;5.70;;
56726;SDS011;42609;52.700;6.236;2023-04-20T11:50:35;8.20;;;6.20;;
56726;SDS011;42609;52.700;6.236;2023-04-20T11:53:01;10.85;;;6.40;;
56726;SDS011;42609;52.700;6.236;2023-04-20T11:55:27;10.00;;;6.85;;
56726;SDS011;42609;52.700;6.236;2023-04-20T11:57:52;8.85;;;6.45;;
56726;SDS011;42609;52.700;6.236;2023-04-20T12:00:18;9.80;;;6.50;;
56726;SDS011;42609;52.700;6.236;2023-04-20T12:02:44;11.27;;;6.88;;
56726;SDS011;42609;52.700;6.236;2023-04-20T12:05:10;9.32;;;6.72;;
56726;SDS011;42609;52.700;6.236;2023-04-20T12:07:35;10.95;;;7.18;;
56726;SDS011;42609;52.700;6.236;2023-04-20T12:10:01;8.82;;;7.10;;
56726;SDS011;42609;52.700;6.236;2023-04-20T12:12:28;10.13;;;7.00;;
56726;SDS011;42609;52.700;6.236;2023-04-20T12:14:54;11.75;;;6.65;;
56726;SDS011;42609;52.700;6.236;2023-04-20T12:17:19;11.20;;;7.55;;
56726;SDS011;42609;52.700;6.236;2023-04-20T12:19:45;9.98;;;6.90;;
56726;SDS011;42609;52.700;6.236;2023-04-20T12:22:11;10.88;;;7.50;;
56726;SDS011;42609;52.700;6.236;2023-04-20T12:24:37;9.85;;;6.20;;
56726;SDS011;42609;52.700;6.236;2023-04-20T12:27:02;10.10;;;6.57;;
56726;SDS011;42609;52.700;6.236;2023-04-20T12:29:30;9.77;;;6.60;;
56726;SDS011;42609;52.700;6.236;2023-04-20T12:31:57;8.95;;;5.97;;
56726;SDS011;42609;52.700;6.236;2023-04-20T12:34:23;9.10;;;6.05;;
56726;SDS011;42609;52.700;6.236;2023-04-20T12:36:48;8.88;;;6.22;;
56726;SDS011;42609;52.700;6.236;2023-04-20T12:39:14;8.98;;;6.38;;
56726;SDS011;42609;52.700;6.236;2023-04-20T12:41:40;8.73;;;6.65;;
56726;SDS011;42609;52.700;6.236;2023-04-20T12:44:06;8.73;;;6.53;;
56726;SDS011;42609;52.700;6.236;2023-04-20T12:46:31;9.40;;;6.85;;
56726;SDS011;42609;52.700;6.236;2023-04-20T12:48:57;10.70;;;7.70;;
56726;SDS011;42609;52.700;6.236;2023-04-20T12:51:22;9.68;;;6.70;;
56726;SDS011;42609;52.700;6.236;2023-04-20T12:53:48;9.77;;;6.72;;
56726;SDS011;42609;52.700;6.236;2023-04-20T12:56:13;10.32;;;6.95;;
56726;SDS011;42609;52.700;6.236;2023-04-20T12:58:39;10.88;;;7.60;;
56726;SDS011;42609;52.700;6.236;2023-04-20T13:01:05;10.82;;;7.78;;
56726;SDS011;42609;52.700;6.236;2023-04-20T13:03:30;10.38;;;6.72;;
56726;SDS011;42609;52.700;6.236;2023-04-20T13:05:56;8.82;;;6.90;;
56726;SDS011;42609;52.700;6.236;2023-04-20T13:08:23;8.05;;;6.55;;
56726;SDS011;42609;52.700;6.236;2023-04-20T13:10:48;9.75;;;6.68;;
56726;SDS011;42609;52.700;6.236;2023-04-20T13:13:14;10.63;;;7.38;;
56726;SDS011;42609;52.700;6.236;2023-04-20T13:15:39;11.38;;;7.88;;
56726;SDS011;42609;52.700;6.236;2023-04-20T13:18:05;13.55;;;7.60;;
56726;SDS011;42609;52.700;6.236;2023-04-20T13:20:31;12.70;;;7.72;;
56726;SDS011;42609;52.700;6.236;2023-04-20T13:22:58;11.93;;;7.38;;
56726;SDS011;42609;52.700;6.236;2023-04-20T13:25:25;10.50;;;7.80;;
56726;SDS011;42609;52.700;6.236;2023-04-20T13:27:54;10.40;;;7.50;;
56726;SDS011;42609;52.700;6.236;2023-04-20T13:30:21;10.27;;;7.60;;
56726;SDS011;42609;52.700;6.236;2023-04-20T13:32:47;11.40;;;7.95;;
56726;SDS011;42609;52.700;6.236;2023-04-20T13:35:12;9.77;;;7.07;;
56726;SDS011;42609;52.700;6.236;2023-04-20T13:37:39;11.68;;;7.32;;
56726;SDS011;42609;52.700;6.236;2023-04-20T13:40:05;9.90;;;7.28;;
56726;SDS011;42609;52.700;6.236;2023-04-20T13:42:32;9.15;;;7.05;;
56726;SDS011;42609;52.700;6.236;2023-04-20T13:44:58;10.75;;;7.32;;
56726;SDS011;42609;52.700;6.236;2023-04-20T13:47:24;8.90;;;7.25;;
56726;SDS011;42609;52.700;6.236;2023-04-20T13:49:50;10.85;;;6.85;;
56726;SDS011;42609;52.700;6.236;2023-04-20T13:52:15;8.73;;;6.63;;
56726;SDS011;42609;52.700;6.236;2023-04-20T13:54:41;11.07;;;6.90;;
56726;SDS011;42609;52.700;6.236;2023-04-20T13:57:06;10.27;;;6.80;;
56726;SDS011;42609;52.700;6.236;2023-04-20T13:59:32;11.48;;;6.53;;
56726;SDS011;42609;52.700;6.236;2023-04-20T14:01:58;9.10;;;5.65;;
56726;SDS011;42609;52.700;6.236;2023-04-20T14:04:23;9.20;;;6.53;;
56726;SDS011;42609;52.700;6.236;2023-04-20T14:06:49;8.10;;;5.95;;
56726;SDS011;42609;52.700;6.236;2023-04-20T14:09:14;9.85;;;6.70;;
56726;SDS011;42609;52.700;6.236;2023-04-20T14:11:40;10.15;;;7.15;;
56726;SDS011;42609;52.700;6.236;2023-04-20T14:14:07;9.85;;;6.70;;
56726;SDS011;42609;52.700;6.236;2023-04-20T14:16:40;11.43;;;6.97;;
56726;SDS011;42609;52.700;6.236;2023-04-20T14:19:12;10.07;;;6.43;;
56726;SDS011;42609;52.700;6.236;2023-04-20T14:21:38;9.52;;;6.10;;
56726;SDS011;42609;52.700;6.236;2023-04-20T14:24:05;10.25;;;6.35;;
56726;SDS011;42609;52.700;6.236;2023-04-20T14:26:31;11.60;;;6.50;;
56726;SDS011;42609;52.700;6.236;2023-04-20T14:28:57;8.43;;;5.65;;
56726;SDS011;42609;52.700;6.236;2023-04-20T14:31:22;8.82;;;5.82;;
56726;SDS011;42609;52.700;6.236;2023-04-20T14:33:48;8.32;;;5.10;;
56726;SDS011;42609;52.700;6.236;2023-04-20T14:36:13;8.63;;;5.38;;
56726;SDS011;42609;52.700;6.236;2023-04-20T14:38:40;8.15;;;5.10;;
56726;SDS011;42609;52.700;6.236;2023-04-20T14:41:05;8.82;;;5.38;;
56726;SDS011;42609;52.700;6.236;2023-04-20T14:43:31;9.32;;;4.97;;
56726;SDS011;42609;52.700;6.236;2023-04-20T14:45:58;7.43;;;4.85;;